Time;durP1;ratioP1;P1;durP2;ratioP2;P2;SDS_P1;SDS_P2;PMS_P1;PMS_P2;Temp;Humidity;BMP_temperature;BMP_pressure;BME280_temperature;BME280_humidity;BME280_pressure;Samples;Min_cycle;Max_cycle;Signal;HPM_P1;HPM_P2
2021/07/15 00:00:42;;;;;;;32.60;29.40;;;;;;;17.87;nan;98607.69;2097651;28;20444;-73
2021/07/15 00:01:43;;;;;;;32.80;29.73;;;;;;;17.83;nan;98614.94;2096892;28;20707;-74
2021/07/15 00:02:45;;;;;;;34.13;30.53;;;;;;;17.80;nan;98618.31;2096931;28;20836;-74
2021/07/15 00:03:46;;;;;;;33.97;30.50;;;;;;;17.82;nan;98626.88;2097688;28;20550;-73
2021/07/15 00:04:48;;;;;;;33.60;30.27;;;;;;;17.78;nan;98629.47;2097076;28;20468;-74
2021/07/15 00:05:51;;;;;;;34.40;30.80;;;;;;;17.81;nan;98630.72;2097061;28;20448;-74
2021/07/15 00:06:51;;;;;;;34.60;31.23;;;;;;;17.80;nan;98629.91;2096487;28;20935;-74
2021/07/15 00:07:53;;;;;;;34.77;31.03;;;;;;;17.80;nan;98637.22;2096681;28;20582;-74
2021/07/15 00:08:54;;;;;;;34.80;31.03;;;;;;;17.83;nan;98647.31;2096754;28;20264;-73
2021/07/15 00:09:55;;;;;;;36.30;31.87;;;;;;;17.86;nan;98646.59;2096896;28;20452;-74
2021/07/15 00:10:57;;;;;;;38.53;31.90;;;;;;;17.91;nan;98649.03;2097461;28;20226;-74
2021/07/15 00:11:59;;;;;;;35.80;32.30;;;;;;;17.94;nan;98647.53;2097679;28;20459;-73
2021/07/15 00:13:00;;;;;;;37.33;33.40;;;;;;;17.90;nan;98647.47;2097597;28;20878;-73
2021/07/15 00:14:02;;;;;;;35.77;32.17;;;;;;;17.91;nan;98650.94;2097730;28;20445;-73
2021/07/15 00:15:05;;;;;;;37.43;33.33;;;;;;;17.96;nan;98650.66;2097605;28;20520;-73
2021/07/15 00:16:09;;;;;;;38.57;32.43;;;;;;;17.98;nan;98659.19;2097555;28;20517;-73
2021/07/15 00:17:10;;;;;;;36.33;32.23;;;;;;;17.96;nan;98661.44;2097231;28;21042;-72
2021/07/15 00:18:13;;;;;;;35.70;31.67;;;;;;;17.94;nan;98664.50;2096828;28;20821;-73
2021/07/15 00:19:15;;;;;;;37.23;32.10;;;;;;;17.96;nan;98666.84;2096928;28;20658;-73
2021/07/15 00:20:19;;;;;;;33.57;30.03;;;;;;;18.00;nan;98665.03;2097624;28;20520;-73
2021/07/15 00:21:23;;;;;;;43.70;31.10;;;;;;;17.99;nan;98658.06;2096577;28;20471;-72
2021/07/15 00:22:24;;;;;;;35.87;31.10;;;;;;;17.98;nan;98659.97;2096302;28;20859;-73
2021/07/15 00:23:25;;;;;;;34.13;30.63;;;;;;;17.97;nan;98653.00;2096676;28;20540;-72
2021/07/15 00:24:28;;;;;;;35.97;29.77;;;;;;;17.99;nan;98661.53;2096826;28;20505;-73
2021/07/15 00:25:29;;;;;;;36.30;30.17;;;;;;;18.00;nan;98668.50;2096947;28;20858;-73
2021/07/15 00:26:31;;;;;;;37.47;30.57;;;;;;;17.99;nan;98672.34;2096743;28;20444;-73
2021/07/15 00:27:31;;;;;;;40.90;30.47;;;;;;;18.01;nan;98680.09;2096908;28;20225;-72
2021/07/15 00:28:33;;;;;;;37.00;30.27;;;;;;;18.01;nan;98675.47;2097566;28;20453;-72
2021/07/15 00:29:33;;;;;;;37.43;29.33;;;;;;;18.03;nan;98694.00;2097474;28;20708;-72
2021/07/15 00:30:35;;;;;;;39.60;30.73;;;;;;;17.98;nan;98696.97;2096972;28;20789;-72
2021/07/15 00:31:36;;;;;;;38.93;30.17;;;;;;;17.98;nan;98724.78;2096733;28;20260;-72
2021/07/15 00:32:38;;;;;;;34.43;30.70;;;;;;;18.00;nan;98741.38;2096271;28;20495;-73
2021/07/15 00:33:39;;;;;;;41.90;29.53;;;;;;;18.05;nan;98757.28;2096663;28;20582;-73
2021/07/15 00:34:40;;;;;;;35.90;29.00;;;;;;;18.13;nan;98774.44;2096975;28;20461;-73
2021/07/15 00:35:42;;;;;;;37.23;29.03;;;;;;;18.13;nan;98774.44;2096657;28;20225;-73
2021/07/15 00:36:44;;;;;;;33.20;28.03;;;;;;;18.09;nan;98784.38;2097357;28;20444;-72
2021/07/15 00:37:45;;;;;;;36.53;28.60;;;;;;;18.04;nan;98785.44;2097276;28;20812;-73
2021/07/15 00:38:47;;;;;;;36.60;29.90;;;;;;;18.00;nan;98784.59;2097394;28;20784;-73
2021/07/15 00:39:47;;;;;;;34.60;29.73;;;;;;;18.02;nan;98787.72;2096400;28;20531;-73
2021/07/15 00:40:49;;;;;;;33.47;28.27;;;;;;;18.02;nan;98800.44;2088350;28;20457;-72
2021/07/15 00:41:49;;;;;;;37.03;29.43;;;;;;;18.01;nan;98796.16;2096745;28;20306;-73
2021/07/15 00:42:51;;;;;;;33.93;29.07;;;;;;;18.01;nan;98798.88;2097453;28;20456;-73
2021/07/15 00:43:52;;;;;;;40.53;29.50;;;;;;;18.00;nan;98806.19;2096151;28;20363;-73
2021/07/15 00:44:53;;;;;;;39.83;30.17;;;;;;;18.02;nan;98812.00;2096593;28;20456;-73
2021/07/15 00:45:54;;;;;;;36.27;30.30;;;;;;;18.02;nan;98803.91;2097196;28;20232;-73
2021/07/15 00:46:55;;;;;;;35.77;28.70;;;;;;;18.01;nan;98813.16;2097429;28;20462;-73
2021/07/15 00:47:56;;;;;;;39.83;29.73;;;;;;;18.08;nan;98824.09;2097419;28;20604;-72
2021/07/15 00:48:58;;;;;;;33.17;29.57;;;;;;;18.14;nan;98829.22;2096487;28;20516;-73
2021/07/15 00:49:59;;;;;;;31.50;28.30;;;;;;;18.12;nan;98823.41;2096684;28;20437;-73
2021/07/15 00:51:02;;;;;;;32.20;28.73;;;;;;;18.08;nan;98818.72;2097383;28;20462;-72
2021/07/15 00:52:03;;;;;;;32.97;29.63;;;;;;;18.04;nan;98812.44;2097178;28;20235;-72
2021/07/15 00:53:05;;;;;;;33.40;28.57;;;;;;;18.03;nan;98827.06;2097364;28;20466;-72
2021/07/15 00:54:06;;;;;;;32.90;28.83;;;;;;;18.00;nan;98825.06;2097204;28;20440;-72
2021/07/15 00:55:10;;;;;;;32.00;28.53;;;;;;;18.05;nan;98838.28;2096421;28;20441;-73
2021/07/15 00:56:11;;;;;;;34.10;30.07;;;;;;;18.06;nan;98844.47;2096521;28;20615;-73
2021/07/15 00:57:13;;;;;;;35.53;28.77;;;;;;;18.06;nan;98829.06;2097300;28;20480;-73
2021/07/15 00:58:15;;;;;;;34.57;29.67;;;;;;;18.06;nan;98845.25;2097205;28;20484;-72
2021/07/15 00:59:20;;;;;;;37.17;30.90;;;;;;;18.06;nan;98847.94;2097084;28;20931;-72
2021/07/15 01:00:22;;;;;;;32.60;29.10;;;;;;;18.04;nan;98855.63;2097288;28;20506;-73
2021/07/15 01:01:23;;;;;;;38.53;31.97;;;;;;;18.04;nan;98852.94;2096787;28;20460;-73
2021/07/15 01:02:24;;;;;;;34.47;30.83;;;;;;;18.05;nan;98853.72;2096200;28;20467;-73
2021/07/15 01:03:25;;;;;;;38.57;30.43;;;;;;;18.03;nan;98848.66;2096527;28;20452;-73
2021/07/15 01:04:26;;;;;;;39.37;30.60;;;;;;;18.01;nan;98834.75;2097239;28;20218;-72
2021/07/15 01:05:30;;;;;;;35.87;31.73;;;;;;;18.02;nan;98830.91;2096680;28;20456;-73
2021/07/15 01:06:32;;;;;;;44.13;32.10;;;;;;;18.06;nan;98817.47;2096469;28;20305;-73
2021/07/15 01:07:34;;;;;;;34.07;30.63;;;;;;;18.06;nan;98809.38;2096351;28;20491;-73
2021/07/15 01:08:34;;;;;;;37.40;31.27;;;;;;;18.04;nan;98796.22;2088017;28;20515;-73
2021/07/15 01:09:36;;;;;;;35.10;31.37;;;;;;;18.06;nan;98782.38;2096379;28;20463;-73
2021/07/15 01:10:39;;;;;;;33.13;29.47;;;;;;;18.14;nan;98761.72;2095956;28;20250;-74
2021/07/15 01:11:46;;;;;;;33.03;29.53;;;;;;;18.21;nan;98748.38;2097076;28;20838;-73
2021/07/15 01:13:05;;;;;;;35.03;31.30;;;;;;;18.14;nan;98727.41;2097136;28;20453;-72
2021/07/15 01:14:09;;;;;;;34.07;30.47;;;;;;;18.06;nan;98704.84;2095994;28;21108;-73
2021/07/15 01:15:11;;;;;;;36.53;30.90;;;;;;;18.04;nan;98682.84;2087950;28;20936;-73
2021/07/15 01:16:21;;;;;;;33.50;29.93;;;;;;;18.07;nan;98679.44;2096509;28;20994;-72
2021/07/15 01:17:26;;;;;;;35.57;31.70;;;;;;;18.13;nan;98676.44;2096745;28;20476;-73
2021/07/15 01:18:38;;;;;;;36.43;32.57;;;;;;;18.17;nan;98664.59;2096991;28;20445;-72
2021/07/15 01:20:03;;;;;;;36.50;32.67;;;;;;;18.20;nan;98677.38;2095888;28;20565;-72
2021/07/15 01:21:25;;;;;;;36.83;33.03;;;;;;;18.27;nan;98677.53;2090787;28;20463;-72
2021/07/15 01:22:31;;;;;;;37.63;33.20;;;;;;;18.25;nan;98679.03;2096093;28;20476;-72
2021/07/15 01:24:07;;;;;;;37.53;33.63;;;;;;;18.14;nan;98686.13;2097020;28;20475;-72
2021/07/15 01:25:44;;;;;;;38.20;34.17;;;;;;;18.07;nan;98695.66;2095439;28;20460;-73
2021/07/15 01:27:11;;;;;;;40.80;35.57;;;;;;;18.22;nan;98694.00;2059349;28;20464;-72
2021/07/15 01:28:21;;;;;;;46.67;35.77;;;;;;;18.23;nan;98708.28;2075162;28;20951;-72
2021/07/15 01:29:26;;;;;;;40.77;36.63;;;;;;;18.29;nan;98723.84;2095779;28;20531;-74
2021/07/15 01:30:32;;;;;;;42.77;38.47;;;;;;;18.33;nan;98723.91;2096372;28;20452;-73
2021/07/15 01:31:34;;;;;;;43.07;37.00;;;;;;;18.38;nan;98725.56;2097078;28;20451;-73
2021/07/15 01:32:42;;;;;;;43.40;38.80;;;;;;;18.40;nan;98726.78;2096406;28;20605;-73
2021/07/15 01:33:44;;;;;;;43.97;39.27;;;;;;;18.39;nan;98719.03;2088593;28;20438;-72
2021/07/15 01:34:46;;;;;;;45.90;39.20;;;;;;;18.38;nan;98707.44;2096324;28;20799;-72
2021/07/15 01:35:49;;;;;;;44.03;39.53;;;;;;;18.40;nan;98702.47;2096879;28;20476;-72
2021/07/15 01:36:54;;;;;;;44.00;39.30;;;;;;;18.53;nan;98684.19;2096595;28;20452;-72
2021/07/15 01:37:57;;;;;;;44.57;39.83;;;;;;;18.50;nan;98691.06;2096329;28;20794;-73
2021/07/15 01:39:03;;;;;;;45.50;40.23;;;;;;;18.39;nan;98700.91;2096439;28;20539;-73
2021/07/15 01:40:05;;;;;;;44.23;39.40;;;;;;;18.39;nan;98705.53;2096307;28;20496;-73
2021/07/15 01:41:09;;;;;;;45.03;40.43;;;;;;;18.32;nan;98712.34;2096357;28;20452;-73
2021/07/15 01:42:14;;;;;;;45.50;40.23;;;;;;;18.30;nan;98719.25;2087768;28;20476;-73
2021/07/15 01:43:20;;;;;;;43.67;38.83;;;;;;;18.28;nan;98716.91;2096223;28;20543;-73
2021/07/15 01:44:24;;;;;;;43.80;39.13;;;;;;;18.25;nan;98716.84;2096160;28;20531;-73
2021/07/15 01:45:26;;;;;;;45.10;40.33;;;;;;;18.24;nan;98715.25;2095941;28;20506;-73
2021/07/15 01:46:28;;;;;;;50.00;39.93;;;;;;;18.25;nan;98711.44;2096959;28;20594;-73
2021/07/15 01:47:30;;;;;;;45.90;40.97;;;;;;;18.23;nan;98709.06;2096474;28;20449;-73
2021/07/15 01:48:31;;;;;;;45.70;40.83;;;;;;;18.23;nan;98709.06;2096237;28;20459;-73
2021/07/15 01:49:33;;;;;;;49.30;41.07;;;;;;;18.23;nan;98719.88;2096930;28;20447;-73
2021/07/15 01:50:34;;;;;;;44.50;39.77;;;;;;;18.24;nan;98729.56;2096846;28;20221;-73
2021/07/15 01:51:36;;;;;;;50.80;40.37;;;;;;;18.23;nan;98719.88;2096958;28;20444;-73
2021/07/15 01:52:37;;;;;;;45.43;41.07;;;;;;;18.22;nan;98722.94;2096609;28;20707;-74
2021/07/15 01:53:39;;;;;;;45.90;41.00;;;;;;;18.22;nan;98722.94;2096882;28;20805;-73
2021/07/15 01:54:39;;;;;;;42.77;38.27;;;;;;;18.25;nan;98733.03;2096853;28;20313;-73
2021/07/15 01:55:41;;;;;;;47.00;40.07;;;;;;;18.24;nan;98723.34;2096795;28;20472;-73
2021/07/15 01:56:42;;;;;;;47.00;40.07;;;;;;;18.25;nan;98716.84;2096861;28;20639;-73
2021/07/15 01:57:44;;;;;;;43.70;39.00;;;;;;;18.23;nan;98710.97;2096596;28;20472;-73
2021/07/15 01:58:46;;;;;;;45.40;40.83;;;;;;;18.23;nan;98711.75;2096808;28;20248;-73
2021/07/15 01:59:49;;;;;;;49.73;40.50;;;;;;;18.21;nan;98710.56;2097005;28;20527;-73
2021/07/15 02:00:50;;;;;;;46.30;41.17;;;;;;;18.20;nan;98715.19;2096076;28;20531;-73
2021/07/15 02:01:54;;;;;;;48.47;41.33;;;;;;;18.18;nan;98728.28;2096157;28;20440;-73
2021/07/15 02:02:55;;;;;;;50.07;41.67;;;;;;;18.18;nan;98727.47;2096477;28;20748;-73
2021/07/15 02:04:00;;;;;;;53.70;43.60;;;;;;;18.17;nan;98723.22;2095992;28;20854;-73
2021/07/15 02:05:04;;;;;;;46.83;41.90;;;;;;;18.13;nan;98715.03;2096189;28;20225;-73
2021/07/15 02:06:06;;;;;;;48.67;43.60;;;;;;;18.13;nan;98706.94;2096269;28;20444;-73
2021/07/15 02:07:07;;;;;;;49.10;43.47;;;;;;;18.13;nan;98695.34;2095707;28;20985;-74
2021/07/15 02:08:10;;;;;;;50.13;42.40;;;;;;;18.15;nan;98690.38;2096777;28;20487;-73
2021/07/15 02:09:11;;;;;;;48.33;43.33;;;;;;;18.16;nan;98678.47;2096853;28;20447;-73
2021/07/15 02:10:18;;;;;;;50.23;43.30;;;;;;;18.16;nan;98676.53;2096893;28;20894;-72
2021/07/15 02:11:20;;;;;;;51.07;43.23;;;;;;;18.21;nan;98678.16;2096852;28;20457;-73
2021/07/15 02:12:22;;;;;;;48.30;43.20;;;;;;;18.19;nan;98672.34;2096816;28;21044;-73
2021/07/15 02:13:23;;;;;;;52.07;43.03;;;;;;;18.18;nan;98681.59;2095240;28;21017;-73
2021/07/15 02:14:26;;;;;;;54.37;44.47;;;;;;;18.15;nan;98679.56;2096040;28;20509;-73
2021/07/15 02:15:28;;;;;;;49.53;44.20;;;;;;;18.16;nan;98684.63;2096831;28;20463;-73
2021/07/15 02:16:31;;;;;;;50.57;42.77;;;;;;;18.16;nan;98683.88;2096864;28;20515;-73
2021/07/15 02:17:35;;;;;;;48.97;43.77;;;;;;;18.18;nan;98676.97;2096260;28;20817;-72
2021/07/15 02:18:39;;;;;;;51.00;45.37;;;;;;;18.26;nan;98680.59;2096121;28;20460;-73
2021/07/15 02:19:40;;;;;;;49.83;44.53;;;;;;;18.23;nan;98676.66;2095602;28;20492;-73
2021/07/15 02:20:43;;;;;;;54.93;45.80;;;;;;;18.30;nan;98666.00;2087938;28;20470;-73
2021/07/15 02:21:44;;;;;;;51.87;45.67;;;;;;;18.24;nan;98658.53;2096079;28;20513;-72
2021/07/15 02:22:47;;;;;;;53.67;45.37;;;;;;;18.23;nan;98654.28;2096058;28;20535;-72
2021/07/15 02:23:48;;;;;;;51.30;45.57;;;;;;;18.24;nan;98653.94;2096728;28;20495;-73
2021/07/15 02:24:50;;;;;;;57.60;46.60;;;;;;;18.17;nan;98647.63;2096857;28;20460;-73
2021/07/15 02:25:52;;;;;;;55.77;47.13;;;;;;;18.19;nan;98651.53;2096875;28;20449;-73
2021/07/15 02:26:57;;;;;;;54.90;45.57;;;;;;;18.18;nan;98663.47;2096391;28;20851;-73
2021/07/15 02:27:59;;;;;;;53.07;45.97;;;;;;;18.18;nan;98662.69;2096860;28;20445;-73
2021/07/15 02:29:01;;;;;;;56.87;49.20;;;;;;;18.17;nan;98671.91;2096870;28;20448;-73
2021/07/15 02:30:05;;;;;;;57.10;47.33;;;;;;;18.16;nan;98673.06;2096859;28;20479;-73
2021/07/15 02:31:10;;;;;;;52.33;46.17;;;;;;;18.22;nan;98675.09;2096847;28;20452;-73
2021/07/15 02:32:12;;;;;;;57.90;47.57;;;;;;;18.22;nan;98674.31;2096363;28;20817;-73
2021/07/15 02:33:17;;;;;;;55.47;48.03;;;;;;;18.18;nan;98662.69;2096723;28;20447;-73
2021/07/15 02:34:21;;;;;;;54.77;48.93;;;;;;;18.20;nan;98660.41;2096238;28;20448;-73
2021/07/15 02:35:25;;;;;;;55.60;48.60;;;;;;;18.16;nan;98657.63;2095696;28;20452;-74
2021/07/15 02:36:26;;;;;;;60.20;47.90;;;;;;;18.17;nan;98666.53;2096162;28;20459;-73
2021/07/15 02:37:30;;;;;;;67.43;49.23;;;;;;;18.16;nan;98654.16;2095885;28;20535;-73
2021/07/15 02:38:32;;;;;;;62.07;47.40;;;;;;;18.17;nan;98671.91;2088084;28;20461;-73
2021/07/15 02:39:34;;;;;;;64.60;48.13;;;;;;;18.16;nan;98670.38;2096038;28;20464;-73
2021/07/15 02:40:36;;;;;;;63.17;49.03;;;;;;;18.18;nan;98684.28;2095803;28;20491;-73
2021/07/15 02:41:36;;;;;;;62.10;46.87;;;;;;;18.19;nan;98691.25;2095670;28;20833;-73
2021/07/15 02:42:39;;;;;;;59.63;47.53;;;;;;;18.18;nan;98686.97;2096626;28;20491;-73
2021/07/15 02:43:40;;;;;;;62.97;48.23;;;;;;;18.28;nan;98694.50;2096671;28;20375;-73
2021/07/15 02:44:42;;;;;;;65.57;47.77;;;;;;;18.30;nan;98703.03;2096791;28;20468;-73
2021/07/15 02:45:43;;;;;;;67.07;49.47;;;;;;;18.30;nan;98725.41;2096774;28;20218;-73
2021/07/15 02:46:45;;;;;;;66.57;48.00;;;;;;;18.28;nan;98735.03;2096717;28;20524;-73
2021/07/15 02:47:47;;;;;;;67.67;48.13;;;;;;;18.37;nan;98735.59;2096727;28;20218;-73
2021/07/15 02:48:50;;;;;;;72.60;49.60;;;;;;;18.36;nan;98748.31;2097449;28;20450;-73
2021/07/15 02:49:51;;;;;;;71.60;50.40;;;;;;;18.34;nan;98755.22;2098236;28;20939;-73
2021/07/15 02:50:52;;;;;;;78.53;54.73;;;;;;;18.34;nan;98755.22;2097233;28;20829;-73
2021/07/15 02:51:53;;;;;;;81.57;58.13;;;;;;;18.26;nan;98756.22;2089195;28;20668;-73
2021/07/15 02:52:56;;;;;;;87.83;55.93;;;;;;;18.24;nan;98761.16;2097552;28;20440;-73
2021/07/15 02:53:57;;;;;;;85.03;57.73;;;;;;;18.20;nan;98757.63;2097639;28;20249;-73
2021/07/15 02:54:59;;;;;;;85.53;57.27;;;;;;;18.25;nan;98760.06;2088928;28;20449;-73
2021/07/15 02:56:06;;;;;;;93.97;58.53;;;;;;;18.18;nan;98765.28;2089409;28;20465;-73
2021/07/15 02:57:12;;;;;;;90.67;58.37;;;;;;;18.16;nan;98767.56;2089767;28;20457;-74
2021/07/15 02:58:17;;;;;;;88.33;57.53;;;;;;;18.11;nan;98771.31;2097570;28;20453;-74
2021/07/15 02:59:22;;;;;;;81.53;55.97;;;;;;;18.04;nan;98771.94;2097730;28;20452;-73
2021/07/15 03:00:25;;;;;;;88.07;56.23;;;;;;;18.00;nan;98773.78;2097163;28;20498;-73
2021/07/15 03:01:28;;;;;;;90.30;57.90;;;;;;;18.02;nan;98785.00;2098113;28;20444;-73
2021/07/15 03:02:31;;;;;;;94.97;57.07;;;;;;;18.08;nan;98793.63;2098066;28;20528;-73
2021/07/15 03:03:41;;;;;;;76.37;53.17;;;;;;;18.16;nan;98813.47;2098061;28;20468;-73
2021/07/15 03:04:48;;;;;;;71.90;52.80;;;;;;;18.10;nan;98817.56;2096918;28;20464;-74
2021/07/15 03:05:54;;;;;;;75.10;51.53;;;;;;;18.07;nan;98808.25;2097431;28;20591;-73
2021/07/15 03:06:56;;;;;;;76.47;53.40;;;;;;;18.02;nan;98785.00;2097704;28;20805;-74
2021/07/15 03:08:01;;;;;;;67.60;50.53;;;;;;;17.98;nan;98762.56;2098132;28;20559;-74
2021/07/15 03:09:04;;;;;;;81.93;51.80;;;;;;;17.99;nan;98741.75;2097528;28;20483;-74
2021/07/15 03:10:07;;;;;;;71.57;48.50;;;;;;;18.07;nan;98732.66;2097454;28;20946;-74
2021/07/15 03:11:08;;;;;;;68.83;49.43;;;;;;;18.02;nan;98709.41;2097622;28;20990;-74
2021/07/15 03:12:13;;;;;;;65.30;48.20;;;;;;;18.00;nan;98687.41;2097989;28;20459;-73
2021/07/15 03:13:14;;;;;;;57.93;44.43;;;;;;;18.15;nan;98682.28;2097233;28;21040;-74
2021/07/15 03:14:16;;;;;;;60.37;44.50;;;;;;;18.15;nan;98663.38;2097302;28;20443;-73
2021/07/15 03:15:17;;;;;;;58.87;45.67;;;;;;;18.08;nan;98650.53;2097445;28;20460;-73
2021/07/15 03:16:20;;;;;;;56.67;44.87;;;;;;;18.10;nan;98648.25;2097375;28;20436;-74
2021/07/15 03:17:25;;;;;;;58.83;45.53;;;;;;;18.05;nan;98667.41;2097389;28;20306;-73
2021/07/15 03:18:28;;;;;;;59.33;46.27;;;;;;;18.02;nan;98682.41;2089162;28;20923;-73
2021/07/15 03:19:30;;;;;;;65.60;46.50;;;;;;;18.01;nan;98702.47;2097331;28;20483;-73
2021/07/15 03:20:37;;;;;;;68.07;47.90;;;;;;;18.01;nan;98698.97;2097065;28;20981;-73
2021/07/15 03:21:40;;;;;;;64.30;46.70;;;;;;;18.05;nan;98699.81;2089136;28;20507;-74
2021/07/15 03:22:45;;;;;;;61.67;47.00;;;;;;;18.12;nan;98705.38;2097286;28;20452;-74
2021/07/15 03:23:46;;;;;;;59.27;45.17;;;;;;;18.12;nan;98701.91;2097856;28;20476;-73
2021/07/15 03:24:51;;;;;;;62.20;44.17;;;;;;;18.07;nan;98695.66;2097997;28;20440;-73
2021/07/15 03:25:54;;;;;;;64.13;45.43;;;;;;;18.03;nan;98686.69;2096778;28;20221;-74
2021/07/15 03:26:57;;;;;;;57.13;42.87;;;;;;;18.02;nan;98682.41;2097312;28;20539;-73
2021/07/15 03:27:59;;;;;;;57.30;43.13;;;;;;;18.03;nan;98689.38;2097894;28;20821;-73
2021/07/15 03:29:02;;;;;;;58.97;43.43;;;;;;;18.00;nan;98692.03;2097888;28;20456;-73
2021/07/15 03:30:07;;;;;;;59.07;46.90;;;;;;;18.06;nan;98694.06;2097986;28;20451;-73
2021/07/15 03:31:09;;;;;;;52.20;43.53;;;;;;;18.07;nan;98695.66;2097566;28;20535;-74
2021/07/15 03:32:13;;;;;;;57.57;44.30;;;;;;;18.10;nan;98680.66;2097102;28;20464;-74
2021/07/15 03:33:15;;;;;;;53.43;42.57;;;;;;;18.08;nan;98664.03;2089266;28;20442;-73
2021/07/15 03:34:17;;;;;;;54.90;42.10;;;;;;;18.14;nan;98667.22;2097220;28;20527;-74
2021/07/15 03:35:18;;;;;;;57.13;42.73;;;;;;;18.11;nan;98670.63;2097346;28;20464;-73
2021/07/15 03:36:22;;;;;;;53.23;42.77;;;;;;;18.06;nan;98671.69;2097263;28;20453;-74
2021/07/15 03:37:23;;;;;;;56.53;43.43;;;;;;;18.08;nan;98674.84;2096911;28;20451;-73
2021/07/15 03:38:25;;;;;;;58.47;44.80;;;;;;;18.06;nan;98667.06;2097241;28;20449;-73
2021/07/15 03:39:26;;;;;;;58.53;45.43;;;;;;;18.05;nan;98670.13;2097852;28;20456;-73
2021/07/15 03:40:29;;;;;;;64.70;47.43;;;;;;;18.05;nan;98670.13;2097353;28;20484;-73
2021/07/15 03:41:30;;;;;;;56.00;45.43;;;;;;;18.03;nan;98659.69;2089302;28;20221;-73
2021/07/15 03:42:32;;;;;;;58.83;46.50;;;;;;;18.01;nan;98648.47;2097272;28;20472;-73
2021/07/15 03:43:33;;;;;;;57.03;46.37;;;;;;;18.02;nan;98633.81;2097809;28;20504;-73
2021/07/15 03:44:37;;;;;;;52.03;46.33;;;;;;;18.07;nan;98625.44;2097716;28;20432;-74
2021/07/15 03:45:39;;;;;;;51.03;44.83;;;;;;;18.18;nan;98614.06;2096455;28;20491;-73
2021/07/15 03:46:41;;;;;;;56.10;44.57;;;;;;;18.15;nan;98609.38;2097037;28;20448;-74
2021/07/15 03:47:43;;;;;;;51.40;43.63;;;;;;;18.29;nan;98604.25;2096897;28;20499;-73
2021/07/15 03:48:45;;;;;;;49.80;44.43;;;;;;;18.29;nan;98598.84;2097248;28;20942;-74
2021/07/15 03:49:48;;;;;;;51.67;44.93;;;;;;;18.25;nan;98603.41;2097081;28;20535;-73
2021/07/15 03:50:49;;;;;;;59.17;45.13;;;;;;;18.19;nan;98592.09;2097707;28;21006;-73
2021/07/15 03:51:52;;;;;;;55.43;44.93;;;;;;;18.20;nan;98587.50;2096979;28;20461;-73
2021/07/15 03:52:57;;;;;;;57.23;45.27;;;;;;;18.33;nan;98583.47;2088274;28;20525;-73
2021/07/15 03:53:57;;;;;;;56.20;43.33;;;;;;;18.28;nan;98603.47;2097139;28;20528;-74
2021/07/15 03:55:00;;;;;;;60.13;43.17;;;;;;;18.20;nan;98622.59;2097797;28;20451;-73
2021/07/15 03:56:01;;;;;;;66.70;44.23;;;;;;;18.19;nan;98626.44;2097781;28;20707;-73
2021/07/15 03:57:02;;;;;;;62.43;45.77;;;;;;;18.24;nan;98618.03;2096908;28;20814;-73
2021/07/15 03:58:05;;;;;;;60.57;46.27;;;;;;;18.20;nan;98611.78;2097045;28;20305;-74
2021/07/15 03:59:07;;;;;;;60.23;47.60;;;;;;;18.18;nan;98592.47;2097752;28;20850;-73
2021/07/15 04:00:08;;;;;;;65.40;49.83;;;;;;;18.20;nan;98592.88;2096485;28;20473;-74
2021/07/15 04:01:14;;;;;;;70.83;48.57;;;;;;;18.17;nan;98602.50;2097535;28;20457;-74
2021/07/15 04:02:18;;;;;;;67.47;48.80;;;;;;;18.22;nan;98617.59;2097754;28;20444;-74
2021/07/15 04:03:21;;;;;;;73.33;49.67;;;;;;;18.26;nan;98621.94;2097657;28;20812;-73
2021/07/15 04:04:21;;;;;;;67.47;49.23;;;;;;;18.34;nan;98630.97;2097600;28;21002;-73
2021/07/15 04:05:24;;;;;;;66.33;48.33;;;;;;;18.44;nan;98638.50;2096566;28;20836;-74
2021/07/15 04:06:26;;;;;;;68.13;49.80;;;;;;;18.37;nan;98635.66;2088759;28;20313;-73
2021/07/15 04:07:30;;;;;;;71.33;49.93;;;;;;;18.28;nan;98637.78;2097025;28;20460;-73
2021/07/15 04:08:32;;;;;;;63.93;51.37;;;;;;;18.30;nan;98647.09;2097115;28;20448;-73
2021/07/15 04:09:35;;;;;;;68.40;51.07;;;;;;;18.29;nan;98650.94;2097039;28;20447;-73
2021/07/15 04:10:38;;;;;;;76.47;52.63;;;;;;;18.27;nan;98633.53;2097601;28;20548;-73
2021/07/15 04:11:43;;;;;;;77.90;53.23;;;;;;;18.22;nan;98625.72;2097214;28;20464;-73
2021/07/15 04:12:46;;;;;;;77.40;52.03;;;;;;;18.18;nan;98614.06;2097600;28;20452;-74
2021/07/15 04:13:47;;;;;;;69.57;51.37;;;;;;;18.16;nan;98619.84;2097548;28;20449;-74
2021/07/15 04:15:02;;;;;;;77.53;52.77;;;;;;;18.13;nan;98635.94;2097733;28;20479;-73
2021/07/15 04:16:15;;;;;;;75.37;53.93;;;;;;;18.13;nan;98654.84;2096460;28;20466;-73
2021/07/15 04:17:16;;;;;;;65.53;50.77;;;;;;;18.14;nan;98661.81;2096539;28;20854;-73
2021/07/15 04:18:19;;;;;;;73.37;51.40;;;;;;;18.10;nan;98652.88;2097642;28;20463;-74
2021/07/15 04:19:20;;;;;;;76.07;52.33;;;;;;;18.09;nan;98638.59;2097585;28;20456;-73
2021/07/15 04:20:24;;;;;;;76.23;52.73;;;;;;;18.08;nan;98632.41;2097494;28;20958;-74
2021/07/15 04:21:25;;;;;;;76.87;54.03;;;;;;;18.08;nan;98628.94;2096735;28;21042;-74
2021/07/15 04:22:29;;;;;;;67.50;52.90;;;;;;;18.08;nan;98632.41;2097541;28;20463;-74
2021/07/15 04:23:30;;;;;;;79.77;54.93;;;;;;;18.10;nan;98642.06;2096991;28;20491;-74
2021/07/15 04:24:33;;;;;;;68.00;51.67;;;;;;;18.12;nan;98658.69;2088461;28;20457;-73
2021/07/15 04:25:34;;;;;;;80.30;52.87;;;;;;;18.10;nan;98661.75;2096760;28;20535;-74
2021/07/15 04:26:36;;;;;;;73.90;49.07;;;;;;;18.12;nan;98647.91;2088847;28;20511;-74
2021/07/15 04:27:37;;;;;;;79.10;50.70;;;;;;;18.12;nan;98642.50;2096544;28;20460;-74
2021/07/15 04:28:40;;;;;;;76.53;49.20;;;;;;;18.10;nan;98636.69;2097343;28;20447;-74
2021/07/15 04:29:41;;;;;;;72.03;48.03;;;;;;;18.12;nan;98647.91;2097079;28;20492;-74
2021/07/15 04:30:45;;;;;;;68.27;48.73;;;;;;;18.10;nan;98652.88;2096946;28;20945;-73
2021/07/15 04:31:56;;;;;;;88.07;50.63;;;;;;;18.12;nan;98664.09;2096900;28;20218;-74
2021/07/15 04:33:00;;;;;;;68.63;49.30;;;;;;;18.12;nan;98683.00;2097143;28;20445;-73
2021/07/15 04:34:01;;;;;;;53.37;45.43;;;;;;;18.30;nan;98703.03;2096607;28;20510;-73
2021/07/15 04:35:04;;;;;;;52.53;43.93;;;;;;;18.29;nan;98704.94;2088146;28;20524;-74
2021/07/15 04:36:05;;;;;;;50.20;41.80;;;;;;;18.34;nan;98709.31;2096673;28;20871;-74
2021/07/15 04:37:07;;;;;;;54.93;42.60;;;;;;;18.30;nan;98711.91;2097388;28;20440;-73
2021/07/15 04:38:09;;;;;;;51.17;44.60;;;;;;;18.28;nan;98697.22;2097129;28;20971;-74
2021/07/15 04:39:12;;;;;;;47.57;41.77;;;;;;;18.25;nan;98685.22;2096899;28;20475;-73
2021/07/15 04:40:16;;;;;;;53.17;41.50;;;;;;;18.23;nan;98665.06;2096744;28;20455;-74
2021/07/15 04:41:18;;;;;;;54.77;42.50;;;;;;;18.28;nan;98635.09;2096896;28;20452;-73
2021/07/15 04:42:19;;;;;;;53.47;42.60;;;;;;;18.28;nan;98629.69;2096731;28;20864;-73
2021/07/15 04:43:21;;;;;;;55.10;44.80;;;;;;;18.31;nan;98628.97;2097347;28;20445;-73
2021/07/15 04:44:23;;;;;;;53.27;43.67;;;;;;;18.31;nan;98629.75;2096124;28;20242;-73
2021/07/15 04:45:25;;;;;;;47.57;42.43;;;;;;;18.28;nan;98621.59;2088344;28;20532;-74
2021/07/15 04:46:26;;;;;;;48.33;43.03;;;;;;;18.28;nan;98635.09;2096608;28;20972;-74
2021/07/15 04:47:29;;;;;;;56.00;45.77;;;;;;;18.26;nan;98630.06;2096437;28;20605;-74
2021/07/15 04:48:29;;;;;;;56.97;45.63;;;;;;;18.28;nan;98632.41;2096692;28;20693;-73
2021/07/15 04:49:31;;;;;;;53.10;47.13;;;;;;;18.29;nan;98633.94;2097274;28;20796;-74
2021/07/15 04:50:33;;;;;;;54.63;46.43;;;;;;;18.30;nan;98633.59;2097322;28;20222;-73
2021/07/15 04:51:39;;;;;;;56.70;47.00;;;;;;;18.35;nan;98629.84;2097238;28;20986;-73
2021/07/15 04:52:41;;;;;;;53.27;45.37;;;;;;;18.38;nan;98622.91;2096109;28;20496;-73
2021/07/15 04:53:46;;;;;;;54.17;45.77;;;;;;;18.41;nan;98622.97;2096555;28;20456;-73
2021/07/15 04:54:47;;;;;;;60.80;47.10;;;;;;;18.43;nan;98618.03;2096320;28;20484;-73
2021/07/15 04:55:51;;;;;;;59.47;44.27;;;;;;;18.47;nan;98621.56;2096602;28;20448;-73
2021/07/15 04:56:52;;;;;;;62.10;46.07;;;;;;;18.51;nan;98635.13;2095960;28;20498;-74
2021/07/15 04:57:54;;;;;;;62.77;45.53;;;;;;;18.57;nan;98631.75;2096342;28;20445;-74